createdAt,value
2018-04-07T00:00:58.291Z,62.60
2018-04-07T00:03:25.784Z,62.52
2018-04-07T00:05:53.275Z,62.60
2018-04-07T00:08:20.792Z,63.04
2018-04-07T00:10:48.281Z,63.13
2018-04-07T00:13:15.762Z,63.40
2018-04-07T00:15:43.285Z,64.00
2018-04-07T00:18:10.778Z,64.43
2018-04-07T00:20:38.263Z,65.11
2018-04-07T00:23:05.787Z,65.50
2018-04-07T00:25:33.270Z,65.78
2018-04-07T00:28:00.759Z,66.02
2018-04-07T00:30:28.266Z,66.36
2018-04-07T00:32:55.750Z,66.27
2018-04-07T00:35:23.234Z,66.04
2018-04-07T00:37:50.742Z,66.00
2018-04-07T00:40:18.238Z,65.41
2018-04-07T00:42:45.742Z,65.29
2018-04-07T00:45:13.254Z,65.27
2018-04-07T00:47:40.747Z,65.07
2018-04-07T00:50:08.234Z,65.34
2018-04-07T00:52:47.570Z,65.33
2018-04-07T00:55:15.063Z,65.58
2018-04-07T00:57:42.565Z,66.03
2018-04-07T01:00:10.074Z,66.27
2018-04-07T01:02:37.574Z,66.82
2018-04-07T01:05:05.064Z,67.16
2018-04-07T01:07:33.571Z,67.63
2018-04-07T01:10:01.062Z,67.96
2018-04-07T01:12:28.546Z,68.10
2018-04-07T01:14:56.064Z,67.96
2018-04-07T01:17:23.551Z,67.94
2018-04-07T01:19:51.037Z,67.57
2018-04-07T01:22:18.556Z,67.51
2018-04-07T01:24:46.033Z,67.43
2018-04-07T01:27:13.523Z,67.36
2018-04-07T01:29:41.038Z,67.29
2018-04-07T01:32:08.523Z,67.66
2018-04-07T01:34:36.028Z,67.79
2018-04-07T01:37:03.533Z,68.04
2018-04-07T01:39:31.022Z,68.10
2018-04-07T01:41:58.514Z,68.66
2018-04-07T01:44:26.025Z,68.89
2018-04-07T01:46:53.514Z,69.40
2018-04-07T01:49:20.999Z,69.53
2018-04-07T01:51:48.517Z,69.47
2018-04-07T01:54:16.006Z,70.01
2018-04-07T01:56:43.495Z,70.12
2018-04-07T01:59:11.029Z,70.55
2018-04-07T02:01:38.521Z,70.69
2018-04-07T02:04:06.008Z,70.43
2018-04-07T02:06:33.518Z,70.21
2018-04-07T02:09:01.001Z,69.62
2018-04-07T02:11:28.482Z,69.93
2018-04-07T02:13:55.990Z,69.78
2018-04-07T02:16:23.473Z,69.89
2018-04-07T02:18:50.966Z,70.04
2018-04-07T02:21:18.483Z,69.86
2018-04-07T02:23:45.975Z,69.64
2018-04-07T02:26:13.533Z,69.25
2018-04-07T02:28:41.054Z,69.07
2018-04-07T02:31:08.539Z,68.86
2018-04-07T02:33:36.036Z,69.02
2018-04-07T02:36:03.613Z,69.31
2018-04-07T02:38:31.098Z,69.67
2018-04-07T02:40:58.587Z,69.64
2018-04-07T02:43:26.096Z,69.44
2018-04-07T02:45:53.614Z,70.00
2018-04-07T02:48:21.120Z,70.32
2018-04-07T02:50:48.635Z,70.52
2018-04-07T02:53:16.118Z,70.55
2018-04-07T02:55:43.611Z,70.64
2018-04-07T02:58:11.132Z,70.41
2018-04-07T03:00:38.623Z,70.39
2018-04-07T03:03:06.111Z,70.08
2018-04-07T03:05:33.618Z,70.08
2018-04-07T03:08:01.107Z,70.41
2018-04-07T03:10:28.598Z,70.33
2018-04-07T03:12:56.107Z,70.64
2018-04-07T03:15:23.602Z,70.40
2018-04-07T03:17:51.082Z,70.51
2018-04-07T03:20:18.598Z,70.38
2018-04-07T03:22:46.091Z,70.37
2018-04-07T03:25:13.583Z,70.34
2018-04-07T03:27:41.092Z,70.45
2018-04-07T03:30:08.583Z,70.15
2018-04-07T03:32:36.075Z,70.27
2018-04-07T03:35:03.597Z,70.26
2018-04-07T03:37:31.088Z,69.97
2018-04-07T03:39:58.580Z,70.02
2018-04-07T03:42:26.093Z,70.11
2018-04-07T03:44:53.578Z,69.92
2018-04-07T03:47:21.063Z,69.30
2018-04-07T03:49:48.583Z,69.23
2018-04-07T03:52:16.066Z,68.77
2018-04-07T03:54:43.550Z,68.91
2018-04-07T03:57:11.053Z,69.37
2018-04-07T03:59:38.556Z,69.63
2018-04-07T04:02:06.046Z,69.83
2018-04-07T04:04:33.563Z,69.85
2018-04-07T04:07:01.046Z,69.93
2018-04-07T04:09:28.535Z,70.14
2018-04-07T04:11:56.058Z,70.24
2018-04-07T04:14:23.544Z,70.40
2018-04-07T04:16:51.026Z,70.35
2018-04-07T04:19:19.139Z,70.40
2018-04-07T04:21:46.627Z,70.33
2018-04-07T04:24:14.131Z,70.18
2018-04-07T04:26:41.641Z,70.35
2018-04-07T04:29:09.137Z,70.42
2018-04-07T04:31:36.623Z,70.35
2018-04-07T04:34:05.098Z,70.39
2018-04-07T04:36:32.587Z,70.35
2018-04-07T04:39:00.071Z,70.30
2018-04-07T04:41:27.586Z,70.40
2018-04-07T04:43:55.074Z,70.04
2018-04-07T04:46:22.553Z,69.88
2018-04-07T04:48:50.062Z,69.39
2018-04-07T04:51:17.547Z,68.81
2018-04-07T04:53:45.043Z,68.26
2018-04-07T04:56:12.563Z,68.02
2018-04-07T04:58:40.042Z,67.31
2018-04-07T05:01:07.529Z,66.12
2018-04-07T05:03:35.051Z,65.47
2018-04-07T05:06:02.535Z,65.58
2018-04-07T05:08:30.027Z,66.17
2018-04-07T05:10:57.538Z,66.32
2018-04-07T05:13:25.036Z,65.31
2018-04-07T05:15:52.617Z,64.45
2018-04-07T05:18:21.086Z,64.00
2018-04-07T05:20:48.579Z,64.45
2018-04-07T05:23:16.067Z,64.07
2018-04-07T05:25:43.595Z,63.03
2018-04-07T05:28:11.099Z,61.20
2018-04-07T05:30:38.583Z,60.51
2018-04-07T05:33:06.091Z,60.95
2018-04-07T05:35:33.578Z,61.04
2018-04-07T05:38:01.061Z,61.17
2018-04-07T05:40:28.578Z,59.93
2018-04-07T05:42:56.061Z,58.12
2018-04-07T05:45:23.545Z,58.17
2018-04-07T05:47:51.055Z,57.01
2018-04-07T05:50:18.533Z,58.04
2018-04-07T05:52:46.029Z,56.79
2018-04-07T05:55:13.539Z,55.21
2018-04-07T05:57:41.023Z,57.23
2018-04-07T06:00:08.619Z,56.49
2018-04-07T06:02:36.302Z,54.44
2018-04-07T06:05:03.777Z,53.67
2018-04-07T06:07:31.258Z,49.54
2018-04-07T06:09:58.762Z,50.93
2018-04-07T06:12:26.241Z,45.42
2018-04-07T06:14:53.725Z,42.89
2018-04-07T06:17:21.238Z,41.07
2018-04-07T06:19:48.723Z,40.79
2018-04-07T06:22:16.202Z,39.18
2018-04-07T06:24:43.697Z,40.23
2018-04-07T06:27:11.178Z,40.00
2018-04-07T06:29:38.658Z,38.02
2018-04-07T06:32:06.153Z,38.19
2018-04-07T06:34:35.455Z,37.08
2018-04-07T06:37:02.940Z,40.18
2018-04-07T06:39:30.447Z,39.38
2018-04-07T06:41:57.974Z,39.28
2018-04-07T06:44:25.447Z,41.11
2018-04-07T06:46:53.140Z,34.01
2018-04-07T06:49:20.760Z,35.48
2018-04-07T06:51:48.394Z,35.23
2018-04-07T06:54:15.902Z,33.59
2018-04-07T06:56:43.382Z,33.66
2018-04-07T06:59:10.866Z,34.88
2018-04-07T07:01:38.369Z,33.98
2018-04-07T07:04:05.846Z,33.89
2018-04-07T07:06:33.335Z,33.56
2018-04-07T07:09:00.855Z,33.83
2018-04-07T07:11:28.350Z,33.40
2018-04-07T07:13:55.851Z,31.95
2018-04-07T07:16:23.389Z,31.76
2018-04-07T07:18:50.887Z,31.71
2018-04-07T07:21:18.379Z,30.87
2018-04-07T07:23:45.891Z,31.82
2018-04-07T07:26:13.374Z,31.72
2018-04-07T07:28:40.856Z,31.53
2018-04-07T07:31:08.369Z,30.61
2018-04-07T07:33:35.854Z,29.49
2018-04-07T07:36:03.338Z,30.22
2018-04-07T07:38:30.847Z,29.47
2018-04-07T07:40:58.328Z,27.29
2018-04-07T07:43:26.739Z,28.26
2018-04-07T07:45:54.272Z,26.91
2018-04-07T07:48:21.754Z,26.89
2018-04-07T07:50:50.391Z,26.69
2018-04-07T07:53:17.968Z,26.94
2018-04-07T07:55:45.449Z,25.71
2018-04-07T07:58:12.922Z,26.56
2018-04-07T08:00:40.431Z,27.67
2018-04-07T08:03:07.928Z,27.57
2018-04-07T08:05:35.415Z,26.24
2018-04-07T08:08:02.923Z,25.93
2018-04-07T08:10:30.412Z,25.55
2018-04-07T08:12:57.899Z,25.98
2018-04-07T08:15:25.427Z,25.27
2018-04-07T08:17:52.901Z,25.56
2018-04-07T08:20:20.388Z,25.28
2018-04-07T08:22:47.898Z,25.00
2018-04-07T08:25:15.388Z,23.59
2018-04-07T08:27:42.875Z,24.90
2018-04-07T08:30:10.393Z,24.03
2018-04-07T08:32:37.866Z,22.49
2018-04-07T08:35:05.346Z,24.71
2018-04-07T08:37:33.852Z,25.06
2018-04-07T08:40:01.338Z,23.55
2018-04-07T08:42:28.809Z,24.64
2018-04-07T08:44:56.310Z,25.57
2018-04-07T08:47:23.799Z,30.49
2018-04-07T08:49:51.283Z,26.76
2018-04-07T08:52:18.794Z,24.28
2018-04-07T08:54:46.282Z,30.33
2018-04-07T08:57:13.786Z,26.93
2018-04-07T08:59:41.302Z,23.28
2018-04-07T09:02:08.777Z,24.45
2018-04-07T09:04:36.258Z,23.54
2018-04-07T09:07:03.796Z,23.88
2018-04-07T09:09:32.176Z,23.84
2018-04-07T09:11:59.674Z,25.56
2018-04-07T09:14:27.238Z,25.99
2018-04-07T09:16:55.735Z,26.33
2018-04-07T09:19:23.250Z,28.11
2018-04-07T09:21:50.735Z,27.69
2018-04-07T09:24:18.218Z,26.94
2018-04-07T09:26:45.703Z,26.28
2018-04-07T09:29:13.208Z,30.10
2018-04-07T09:31:40.696Z,26.08
2018-04-07T09:34:08.248Z,27.44
2018-04-07T09:36:35.768Z,25.95
2018-04-07T09:39:03.269Z,23.98
2018-04-07T09:41:30.754Z,25.90
2018-04-07T09:43:58.268Z,26.69
2018-04-07T09:46:25.758Z,25.16
2018-04-07T09:48:53.312Z,25.18
2018-04-07T09:51:20.828Z,25.17
2018-04-07T09:53:48.306Z,26.11
2018-04-07T09:56:15.794Z,25.43
2018-04-07T09:58:43.322Z,24.57
2018-04-07T10:01:10.830Z,24.57
2018-04-07T10:03:38.344Z,24.67
2018-04-07T10:06:05.860Z,23.73
2018-04-07T10:08:33.352Z,22.62
2018-04-07T10:11:00.845Z,22.34
2018-04-07T10:13:28.367Z,22.38
2018-04-07T10:15:55.850Z,23.27
2018-04-07T10:18:23.346Z,24.46
2018-04-07T10:20:50.887Z,22.63
2018-04-07T10:23:18.452Z,20.74
2018-04-07T10:25:45.943Z,21.70
2018-04-07T10:28:13.469Z,21.84
2018-04-07T10:30:40.958Z,21.06
2018-04-07T10:33:08.443Z,20.82
2018-04-07T10:35:35.954Z,21.28
2018-04-07T10:38:03.439Z,23.05
2018-04-07T10:40:30.931Z,20.32
2018-04-07T10:42:58.450Z,18.19
2018-04-07T10:45:25.939Z,18.60
2018-04-07T10:47:53.437Z,18.00
2018-04-07T10:50:20.950Z,21.10
2018-04-07T10:52:48.464Z,18.47
2018-04-07T10:55:15.975Z,19.44
2018-04-07T10:57:43.498Z,21.70
2018-04-07T11:00:11.006Z,21.75
2018-04-07T11:02:38.547Z,21.79
2018-04-07T11:05:06.062Z,21.19
2018-04-07T11:07:33.560Z,20.45
2018-04-07T11:10:01.071Z,19.65
2018-04-07T11:12:28.610Z,22.28
2018-04-07T11:14:56.100Z,23.35
2018-04-07T11:17:23.613Z,22.74
2018-04-07T11:19:51.139Z,23.52
2018-04-07T11:22:18.628Z,24.55
2018-04-07T11:24:46.441Z,24.79
2018-04-07T11:27:13.946Z,25.20
2018-04-07T11:29:41.459Z,23.98
2018-04-07T11:32:08.952Z,24.53
2018-04-07T11:34:36.475Z,25.45
2018-04-07T11:37:03.963Z,26.09
2018-04-07T11:39:31.454Z,25.96
2018-04-07T11:41:58.967Z,26.43
2018-04-07T11:44:26.448Z,25.84
2018-04-07T11:46:53.944Z,26.12
2018-04-07T11:49:21.454Z,26.39
2018-04-07T11:51:48.975Z,27.23
2018-04-07T11:54:16.481Z,27.82
2018-04-07T11:56:43.999Z,25.22
2018-04-07T11:59:11.491Z,25.13
2018-04-07T12:01:39.559Z,25.70
2018-04-07T12:04:07.076Z,25.23
2018-04-07T12:06:34.574Z,26.82
2018-04-07T12:09:02.079Z,26.50
2018-04-07T12:11:29.596Z,25.51
2018-04-07T12:13:57.090Z,25.84
2018-04-07T12:16:24.620Z,25.31
2018-04-07T12:18:52.179Z,27.58
2018-04-07T12:21:19.680Z,29.34
2018-04-07T12:23:47.179Z,30.73
2018-04-07T12:26:14.698Z,30.97
2018-04-07T12:28:42.186Z,30.40
2018-04-07T12:31:09.684Z,29.84
2018-04-07T12:33:37.203Z,30.77
2018-04-07T12:36:04.716Z,30.57
2018-04-07T12:38:32.202Z,30.66
2018-04-07T12:40:59.718Z,30.18
2018-04-07T12:43:27.213Z,30.12
2018-04-07T12:45:54.703Z,30.94
2018-04-07T12:48:22.214Z,29.93
2018-04-07T12:50:49.706Z,30.74
2018-04-07T12:53:17.208Z,30.56
2018-04-07T12:55:45.710Z,29.72
2018-04-07T12:58:13.198Z,29.04
2018-04-07T13:00:40.687Z,30.08
2018-04-07T13:03:08.202Z,29.12
2018-04-07T13:05:35.686Z,30.16
2018-04-07T13:08:03.178Z,29.86
2018-04-07T13:10:30.699Z,28.62
2018-04-07T13:12:58.195Z,29.63
2018-04-07T13:15:25.682Z,28.89
2018-04-07T13:17:53.271Z,29.85
2018-04-07T13:20:20.760Z,28.63
2018-04-07T13:22:48.246Z,28.96
2018-04-07T13:25:15.766Z,30.31
2018-04-07T13:27:43.252Z,28.59
2018-04-07T13:30:10.754Z,28.46
2018-04-07T13:32:38.267Z,28.79
2018-04-07T13:35:05.766Z,27.73
2018-04-07T13:37:33.254Z,29.31
2018-04-07T13:40:00.779Z,29.38
2018-04-07T13:42:28.258Z,28.79
2018-04-07T13:44:55.742Z,29.30
2018-04-07T13:47:23.258Z,29.51
2018-04-07T13:49:50.749Z,29.65
2018-04-07T13:52:18.243Z,27.54
2018-04-07T13:54:45.756Z,29.36
2018-04-07T13:57:13.246Z,28.70
2018-04-07T13:59:40.727Z,28.89
2018-04-07T14:02:08.243Z,28.47
2018-04-07T14:04:35.730Z,28.27
2018-04-07T14:07:04.125Z,28.66
2018-04-07T14:09:31.642Z,27.93
2018-04-07T14:11:59.131Z,29.32
2018-04-07T14:14:26.635Z,27.38
2018-04-07T14:16:54.145Z,28.15
2018-04-07T14:19:21.643Z,27.82
2018-04-07T14:21:49.136Z,27.40
2018-04-07T14:24:16.647Z,29.27
2018-04-07T14:26:44.139Z,27.32
2018-04-07T14:29:11.626Z,27.58
2018-04-07T14:31:39.138Z,28.24
2018-04-07T14:34:06.631Z,28.72
2018-04-07T14:36:34.116Z,28.67
2018-04-07T14:39:01.642Z,27.42
2018-04-07T14:41:29.123Z,27.52
2018-04-07T14:43:56.612Z,27.23
2018-04-07T14:46:24.116Z,29.02
2018-04-07T14:48:51.604Z,26.35
2018-04-07T14:51:19.091Z,27.20
2018-04-07T14:53:46.597Z,28.26
2018-04-07T14:56:14.083Z,29.19
2018-04-07T14:58:41.565Z,28.85
2018-04-07T15:01:09.108Z,27.47
2018-04-07T15:03:36.615Z,28.25
2018-04-07T15:06:04.099Z,27.84
2018-04-07T15:08:31.607Z,27.43
2018-04-07T15:10:59.093Z,27.62
2018-04-07T15:13:26.618Z,29.27
2018-04-07T15:15:54.902Z,27.64
2018-04-07T15:18:22.382Z,27.57
2018-04-07T15:20:49.866Z,27.50
2018-04-07T15:23:17.393Z,29.21
2018-04-07T15:25:44.874Z,29.30
2018-04-07T15:28:12.357Z,28.28
2018-04-07T15:30:39.895Z,27.45
2018-04-07T15:33:07.380Z,28.34
2018-04-07T15:35:34.859Z,28.20
2018-04-07T15:38:02.370Z,27.98
2018-04-07T15:40:29.860Z,27.69
2018-04-07T15:42:57.341Z,28.68
2018-04-07T15:45:24.850Z,28.78
2018-04-07T15:47:52.343Z,28.57
2018-04-07T15:50:19.830Z,27.84
2018-04-07T15:52:47.337Z,27.73
2018-04-07T15:55:14.826Z,27.77
2018-04-07T15:57:42.318Z,28.49
2018-04-07T16:00:09.828Z,27.88
2018-04-07T16:02:37.313Z,28.07
2018-04-07T16:05:04.794Z,28.44
2018-04-07T16:07:32.312Z,28.14
2018-04-07T16:09:59.800Z,28.41
2018-04-07T16:12:27.290Z,28.22
2018-04-07T16:14:54.799Z,29.51
2018-04-07T16:17:22.296Z,27.71
2018-04-07T16:19:49.782Z,28.85
2018-04-07T16:22:17.287Z,27.37
2018-04-07T16:24:44.770Z,29.41
2018-04-07T16:27:12.254Z,28.32
2018-04-07T16:29:39.763Z,27.34
2018-04-07T16:32:07.251Z,28.04
2018-04-07T16:34:34.733Z,28.86
2018-04-07T16:37:02.252Z,27.68
2018-04-07T16:39:29.734Z,27.48
2018-04-07T16:41:57.209Z,28.23
2018-04-07T16:44:24.714Z,27.85
2018-04-07T16:46:52.207Z,28.35
2018-04-07T16:49:19.686Z,28.63
2018-04-07T16:51:47.195Z,28.38
2018-04-07T16:54:14.708Z,29.10
2018-04-07T16:56:42.206Z,27.94
2018-04-07T16:59:09.719Z,29.55
2018-04-07T17:01:37.205Z,29.50
2018-04-07T17:04:04.692Z,29.14
2018-04-07T17:06:32.195Z,29.38
2018-04-07T17:08:59.683Z,29.96
2018-04-07T17:11:27.163Z,31.10
2018-04-07T17:13:54.671Z,31.75
2018-04-07T17:16:22.153Z,31.23
2018-04-07T17:18:50.626Z,31.49
2018-04-07T17:21:18.134Z,33.21
2018-04-07T17:23:45.623Z,32.59
2018-04-07T17:26:13.121Z,32.99
2018-04-07T17:28:40.631Z,33.26
2018-04-07T17:31:08.119Z,34.31
2018-04-07T17:33:35.610Z,34.74
2018-04-07T17:36:03.122Z,34.70
2018-04-07T17:38:30.615Z,34.63
2018-04-07T17:40:58.106Z,34.96
2018-04-07T17:43:25.611Z,34.93
2018-04-07T17:45:53.095Z,35.54
2018-04-07T17:48:20.712Z,36.33
2018-04-07T17:50:48.284Z,36.45
2018-04-07T17:53:15.778Z,36.60
2018-04-07T17:55:43.267Z,37.09
2018-04-07T17:58:10.774Z,37.10
2018-04-07T18:00:38.250Z,36.83
2018-04-07T18:03:05.731Z,36.75
2018-04-07T18:05:33.241Z,36.92
2018-04-07T18:08:00.713Z,38.18
2018-04-07T18:10:28.203Z,38.02
2018-04-07T18:12:55.731Z,38.17
2018-04-07T18:15:23.210Z,38.32
2018-04-07T18:17:50.844Z,38.77
2018-04-07T18:20:18.542Z,39.06
2018-04-07T18:22:46.183Z,38.98
2018-04-07T18:25:13.829Z,39.37
2018-04-07T18:27:41.507Z,39.37
2018-04-07T18:30:09.129Z,39.51
2018-04-07T18:32:36.820Z,39.60
2018-04-07T18:35:04.497Z,39.72
2018-04-07T18:37:32.190Z,39.59
2018-04-07T18:39:59.822Z,39.72
2018-04-07T18:42:27.514Z,40.20
2018-04-07T18:44:55.175Z,40.09
2018-04-07T18:47:22.836Z,40.21
2018-04-07T18:49:50.414Z,40.27
2018-04-07T18:52:17.909Z,40.28
2018-04-07T18:54:45.518Z,40.41
2018-04-07T18:57:13.026Z,40.52
2018-04-07T18:59:40.507Z,40.50
2018-04-07T19:02:08.016Z,40.81
2018-04-07T19:04:35.532Z,40.91
2018-04-07T19:07:03.030Z,41.02
2018-04-07T19:09:30.804Z,41.63
2018-04-07T19:11:58.578Z,42.07
2018-04-07T19:14:28.359Z,42.43
2018-04-07T19:16:55.834Z,43.69
2018-04-07T19:19:23.339Z,44.29
2018-04-07T19:21:50.822Z,43.05
2018-04-07T19:24:18.323Z,42.73
2018-04-07T19:26:45.830Z,42.76
2018-04-07T19:29:13.314Z,43.17
2018-04-07T19:31:40.809Z,43.44
2018-04-07T19:34:08.323Z,43.49
2018-04-07T19:36:35.812Z,43.63
2018-04-07T19:39:03.302Z,43.85
2018-04-07T19:41:30.824Z,43.86
2018-04-07T19:43:58.315Z,44.17
2018-04-07T19:46:25.826Z,44.17
2018-04-07T19:48:53.346Z,44.01
2018-04-07T19:51:20.830Z,43.43
2018-04-07T19:53:48.308Z,43.46
2018-04-07T19:56:15.822Z,43.53
2018-04-07T19:58:43.318Z,44.50
2018-04-07T20:01:10.807Z,44.58
2018-04-07T20:03:38.319Z,44.68
2018-04-07T20:06:06.763Z,44.79
2018-04-07T20:08:34.249Z,45.10
2018-04-07T20:11:01.763Z,45.02
2018-04-07T20:13:29.269Z,45.12
2018-04-07T20:15:56.778Z,44.91
2018-04-07T20:18:24.277Z,44.88
2018-04-07T20:20:51.753Z,45.04
2018-04-07T20:23:19.239Z,45.29
2018-04-07T20:25:46.742Z,45.05
2018-04-07T20:28:14.254Z,45.14
2018-04-07T20:30:41.730Z,45.79
2018-04-07T20:33:09.291Z,46.27
2018-04-07T20:35:36.806Z,46.76
2018-04-07T20:38:04.298Z,47.61
2018-04-07T20:40:31.844Z,48.58
2018-04-07T20:42:59.326Z,48.50
2018-04-07T20:45:26.809Z,49.17
2018-04-07T20:47:54.319Z,49.89
2018-04-07T20:50:21.826Z,50.36
2018-04-07T20:52:49.313Z,51.05
2018-04-07T20:55:16.871Z,51.56
2018-04-07T20:57:44.335Z,52.10
2018-04-07T21:00:11.842Z,52.67
2018-04-07T21:02:39.362Z,53.14
2018-04-07T21:05:06.846Z,53.08
2018-04-07T21:07:34.327Z,53.62
2018-04-07T21:10:01.839Z,54.36
2018-04-07T21:12:29.324Z,54.38
2018-04-07T21:14:56.807Z,54.79
2018-04-07T21:17:24.370Z,55.19
2018-04-07T21:19:51.836Z,55.39
2018-04-07T21:22:19.342Z,55.22
2018-04-07T21:24:46.859Z,55.39
2018-04-07T21:27:14.343Z,55.25
2018-04-07T21:29:41.827Z,55.25
2018-04-07T21:32:09.341Z,55.60
2018-04-07T21:34:36.821Z,55.10
2018-04-07T21:37:04.315Z,55.67
2018-04-07T21:39:31.827Z,56.03
2018-04-07T21:41:59.297Z,56.68
2018-04-07T21:44:26.874Z,56.83
2018-04-07T21:46:54.387Z,57.62
2018-04-07T21:49:21.870Z,57.96
2018-04-07T21:51:49.353Z,57.84
2018-04-07T21:54:16.862Z,58.36
2018-04-07T21:56:44.341Z,58.89
2018-04-07T21:59:11.830Z,59.16
2018-04-07T22:01:39.371Z,59.55
2018-04-07T22:04:07.738Z,59.46
2018-04-07T22:06:35.228Z,59.90
2018-04-07T22:09:02.738Z,59.84
2018-04-07T22:11:30.222Z,60.56
2018-04-07T22:13:57.702Z,60.43
2018-04-07T22:16:25.214Z,59.77
2018-04-07T22:18:52.703Z,59.60
2018-04-07T22:21:20.195Z,59.16
2018-04-07T22:23:47.706Z,58.98
2018-04-07T22:26:15.187Z,59.22
2018-04-07T22:28:42.679Z,59.62
2018-04-07T22:31:10.177Z,59.16
2018-04-07T22:33:37.663Z,58.86
2018-04-07T22:36:05.176Z,58.62
2018-04-07T22:38:32.695Z,59.26
2018-04-07T22:41:00.184Z,59.18
2018-04-07T22:43:27.675Z,59.30
2018-04-07T22:45:55.294Z,58.90
2018-04-07T22:48:22.782Z,58.59
2018-04-07T22:50:50.262Z,58.48
2018-04-07T22:53:17.770Z,58.73
2018-04-07T22:55:45.253Z,59.45
2018-04-07T22:58:12.725Z,59.74
2018-04-07T23:00:40.227Z,60.18
2018-04-07T23:03:07.711Z,60.23
2018-04-07T23:05:35.202Z,60.61
2018-04-07T23:08:02.705Z,60.74
2018-04-07T23:10:30.187Z,61.13
2018-04-07T23:12:57.674Z,61.41
2018-04-07T23:15:25.190Z,61.95
2018-04-07T23:17:52.674Z,62.29
2018-04-07T23:20:20.160Z,62.64
2018-04-07T23:22:47.662Z,62.60
2018-04-07T23:25:15.155Z,62.30
2018-04-07T23:27:42.643Z,61.97
2018-04-07T23:30:11.154Z,61.72
2018-04-07T23:32:38.651Z,61.47
2018-04-07T23:35:06.141Z,61.87
2018-04-07T23:37:33.654Z,62.22
2018-04-07T23:40:01.138Z,62.32
2018-04-07T23:42:28.630Z,62.25
2018-04-07T23:44:56.148Z,62.34
2018-04-07T23:47:23.630Z,62.57
2018-04-07T23:49:51.114Z,63.18
2018-04-07T23:52:18.626Z,63.45
2018-04-07T23:54:46.108Z,63.81
2018-04-07T23:57:13.618Z,64.00
2018-04-07T23:59:41.134Z,63.63
